Time;durP1;ratioP1;P1;durP2;ratioP2;P2;SDS_P1;SDS_P2;PMS_P1;PMS_P2;Temp;Humidity;BMP_temperature;BMP_pressure;BME280_temperature;BME280_humidity;BME280_pressure;Samples;Min_cycle;Max_cycle;Signal;HPM_P1;HPM_P2
2022/11/02 00:01:54;;;;;;;47.10;20.90;;;;;;;5.41;79.84;100183.20;1707726;81;21185;-66
2022/11/02 00:04:20;;;;;;;51.40;23.12;;;;;;;5.38;80.51;100178.89;1692750;82;21185;-67
2022/11/02 00:06:47;;;;;;;56.18;23.30;;;;;;;5.47;80.81;100172.64;1707019;82;21059;-65
2022/11/02 00:09:13;;;;;;;56.55;25.65;;;;;;;5.47;81.40;100171.33;1701182;82;21110;-65
2022/11/02 00:11:40;;;;;;;51.05;22.32;;;;;;;5.33;81.88;100174.61;1703971;82;21039;-65
2022/11/02 00:14:07;;;;;;;56.68;23.32;;;;;;;5.31;81.71;100172.45;1706825;82;21115;-65
2022/11/02 00:16:33;;;;;;;54.83;24.67;;;;;;;5.37;80.69;100161.48;1707115;82;21213;-66
2022/11/02 00:19:01;;;;;;;54.10;25.68;;;;;;;5.44;81.10;100152.66;1662651;82;21067;-65
2022/11/02 00:21:27;;;;;;;54.00;23.62;;;;;;;5.53;80.14;100146.44;1662593;82;21067;-66
2022/11/02 00:23:55;;;;;;;49.42;22.60;;;;;;;5.57;79.98;100148.11;1700396;82;21086;-66
2022/11/02 00:26:21;;;;;;;53.58;22.32;;;;;;;5.63;80.10;100149.75;1704087;82;21973;-66
2022/11/02 00:28:48;;;;;;;48.58;21.57;;;;;;;5.73;79.00;100147.42;1692602;82;21866;-66
2022/11/02 00:31:14;;;;;;;48.73;20.70;;;;;;;5.76;77.90;100146.50;1706844;82;21143;-66
2022/11/02 00:33:42;;;;;;;53.23;23.10;;;;;;;5.80;77.95;100142.50;1687203;82;21098;-66
2022/11/02 00:36:08;;;;;;;44.53;19.90;;;;;;;5.79;77.97;100140.77;1698063;82;21124;-65
2022/11/02 00:38:35;;;;;;;42.25;19.62;;;;;;;5.77;77.73;100144.30;1703531;82;21078;-65
2022/11/02 00:41:01;;;;;;;47.38;19.37;;;;;;;5.78;77.23;100146.03;1701695;82;21111;-65
2022/11/02 00:43:29;;;;;;;42.62;19.20;;;;;;;5.76;76.84;100143.89;1703875;82;21699;-67
2022/11/02 00:45:56;;;;;;;41.37;19.12;;;;;;;5.71;76.50;100141.80;1704034;82;21544;-66
2022/11/02 00:48:22;;;;;;;46.68;19.27;;;;;;;5.68;76.88;100148.80;1706913;82;21570;-65
2022/11/02 00:50:49;;;;;;;42.98;19.40;;;;;;;5.58;77.03;100145.91;1702644;82;21079;-67
2022/11/02 00:53:17;;;;;;;42.88;19.75;;;;;;;5.51;76.62;100153.43;1697220;82;21077;-66
2022/11/02 00:55:46;;;;;;;44.42;19.55;;;;;;;5.53;76.47;100141.20;1701715;82;21539;-67
2022/11/02 00:58:14;;;;;;;42.15;19.25;;;;;;;5.53;76.18;100135.98;1703941;82;21151;-66
2022/11/02 01:00:41;;;;;;;45.90;20.05;;;;;;;5.63;75.77;100133.62;1704362;82;21090;-66
2022/11/02 01:03:09;;;;;;;42.88;18.67;;;;;;;5.67;75.39;100147.06;1701684;83;21106;-66
2022/11/02 01:05:36;;;;;;;46.15;17.40;;;;;;;5.65;74.94;100143.61;1701169;83;21103;-66
2022/11/02 01:08:04;;;;;;;48.10;19.40;;;;;;;5.53;75.42;100141.66;1703949;83;21714;-66
2022/11/02 01:10:31;;;;;;;40.52;17.67;;;;;;;5.50;75.77;100142.58;1702721;83;21068;-66
2022/11/02 01:13:00;;;;;;;38.70;17.57;;;;;;;5.51;75.67;100133.84;1702741;83;21141;-64
2022/11/02 01:15:27;;;;;;;41.98;18.70;;;;;;;5.45;76.22;100134.81;1704041;83;21090;-66
2022/11/02 01:17:53;;;;;;;36.08;17.12;;;;;;;5.38;76.43;100136.22;1701026;83;21118;-66
2022/11/02 01:20:21;;;;;;;48.60;19.98;;;;;;;5.37;76.37;100134.05;1695696;83;21216;-65
2022/11/02 01:22:47;;;;;;;38.67;17.82;;;;;;;5.34;76.53;100134.56;1699702;83;21123;-65
2022/11/02 01:25:14;;;;;;;35.25;15.93;;;;;;;5.39;75.72;100134.90;1701133;83;21047;-65
2022/11/02 01:27:40;;;;;;;36.58;17.48;;;;;;;5.47;75.26;100138.69;1704034;83;21129;-66
2022/11/02 01:30:10;;;;;;;37.13;17.25;;;;;;;5.38;76.04;100136.22;1704450;83;21189;-65
2022/11/02 01:32:36;;;;;;;42.62;17.80;;;;;;;5.29;76.52;100135.94;1704211;83;21170;-66
2022/11/02 01:35:05;;;;;;;32.45;15.80;;;;;;;5.26;76.52;100127.69;1695567;83;21560;-65
2022/11/02 01:37:32;;;;;;;42.98;19.35;;;;;;;5.23;76.61;100126.44;1701344;83;20985;-68
2022/11/02 01:39:59;;;;;;;41.75;18.75;;;;;;;5.19;77.02;100126.05;1703398;82;21114;-66
2022/11/02 01:42:27;;;;;;;43.05;20.55;;;;;;;5.13;77.00;100130.09;1695271;83;21212;-65
2022/11/02 01:44:55;;;;;;;45.17;21.17;;;;;;;5.01;77.48;100123.72;1705789;83;21745;-65
2022/11/02 01:47:31;;;;;;;40.98;20.10;;;;;;;4.94;77.98;100122.08;1696286;83;21617;-66
2022/11/02 01:50:10;;;;;;;46.73;20.48;;;;;;;4.89;78.39;100121.29;1698912;83;21023;-65
2022/11/02 01:52:38;;;;;;;46.02;22.30;;;;;;;4.76;79.34;100125.80;1698044;83;21039;-66
2022/11/02 01:55:23;;;;;;;44.80;21.33;;;;;;;4.75;78.90;100117.12;1701306;82;21753;-65
2022/11/02 01:57:55;;;;;;;41.58;18.80;;;;;;;4.62;79.11;100110.33;1701383;83;21094;-66
2022/11/02 02:00:22;;;;;;;43.25;18.90;;;;;;;4.49;80.08;100103.57;1701853;82;21051;-66
2022/11/02 02:02:55;;;;;;;40.28;18.65;;;;;;;4.49;81.01;100100.96;1704943;83;21501;-66
2022/11/02 02:05:22;;;;;;;38.30;17.75;;;;;;;4.31;81.64;100108.11;1703900;83;21082;-66
2022/11/02 02:07:50;;;;;;;47.60;21.30;;;;;;;4.35;81.62;100102.44;1701803;83;22133;-65
2022/11/02 02:10:20;;;;;;;46.23;21.87;;;;;;;4.34;82.03;100102.84;1700858;83;21321;-65
2022/11/02 02:12:47;;;;;;;44.05;19.30;;;;;;;4.34;81.75;100108.06;1701055;83;21155;-67
2022/11/02 02:15:16;;;;;;;42.67;19.20;;;;;;;4.27;81.81;100105.11;1703290;83;22039;-66
2022/11/02 02:17:57;;;;;;;43.98;19.73;;;;;;;4.07;83.06;100103.17;1703992;83;21590;-66
2022/11/02 02:20:45;;;;;;;44.77;20.77;;;;;;;4.09;83.92;100104.02;1706937;83;21863;-66
2022/11/02 02:23:35;;;;;;;44.83;21.42;;;;;;;4.09;84.86;100101.41;1691448;83;21597;-66
2022/11/02 02:26:24;;;;;;;46.83;19.80;;;;;;;4.05;85.44;100099.70;1707154;83;21606;-66
2022/11/02 02:29:02;;;;;;;53.65;22.65;;;;;;;4.12;84.55;100097.48;1686608;83;21110;-65
2022/11/02 02:31:41;;;;;;;45.15;21.10;;;;;;;4.11;84.82;100087.92;1705612;83;21594;-66
2022/11/02 02:34:26;;;;;;;50.15;22.27;;;;;;;4.09;84.05;100090.98;1697593;83;21351;-66
2022/11/02 02:37:06;;;;;;;45.95;20.77;;;;;;;4.06;84.18;100097.09;1693928;83;21098;-66
2022/11/02 02:39:46;;;;;;;52.17;21.07;;;;;;;4.10;84.04;100097.94;1699893;83;21063;-66
2022/11/02 02:42:27;;;;;;;46.18;19.67;;;;;;;4.02;83.83;100096.70;1699715;83;21563;-66
2022/11/02 02:45:06;;;;;;;;;;;;;;;3.87;84.74;100090.38;1706407;83;21169;-65
2022/11/02 02:47:34;;;;;;;43.45;19.65;;;;;;;3.83;85.23;100084.31;1678578;84;20557;-67
2022/11/02 02:50:12;;;;;;;52.30;23.60;;;;;;;3.80;85.62;100094.78;1679116;84;21587;-66
2022/11/02 02:52:39;;;;;;;51.02;24.63;;;;;;;3.84;85.66;100091.23;1677445;84;21503;-66
2022/11/02 02:55:09;;;;;;;60.58;28.42;;;;;;;3.75;85.91;100087.42;1678138;84;21107;-67
2022/11/02 02:57:36;;;;;;;49.63;23.25;;;;;;;3.79;85.83;100080.00;1679913;84;21107;-66
2022/11/02 03:00:05;;;;;;;52.90;26.55;;;;;;;3.80;86.33;100080.45;1678124;84;21103;-64
2022/11/02 03:02:35;;;;;;;51.60;25.40;;;;;;;3.76;86.41;100078.75;1694578;83;21114;-65
2022/11/02 03:05:02;;;;;;;54.33;25.68;;;;;;;3.69;86.92;100081.84;1695361;83;21610;-66
2022/11/02 03:07:31;;;;;;;49.70;22.65;;;;;;;3.75;87.28;100079.19;1708029;82;21603;-67
2022/11/02 03:10:13;;;;;;;49.80;22.60;;;;;;;3.69;88.21;100080.98;1708282;82;21554;-66
2022/11/02 03:13:30;;;;;;;37.65;18.95;;;;;;;3.72;88.10;100081.80;1706437;82;21223;-65
2022/11/02 03:16:10;;;;;;;46.00;20.40;;;;;;;3.64;88.15;100074.97;1705580;83;21210;-66
2022/11/02 03:18:54;;;;;;;42.53;20.00;;;;;;;3.65;88.54;100082.75;1707440;83;21044;-65
2022/11/02 03:21:26;;;;;;;42.00;19.77;;;;;;;3.58;88.41;100076.73;1706252;82;21075;-65
2022/11/02 03:24:16;;;;;;;46.75;21.70;;;;;;;3.58;88.64;100078.48;1706178;82;21067;-65
2022/11/02 03:27:18;;;;;;;40.88;20.77;;;;;;;3.58;88.81;100091.50;1706141;83;21245;-66
2022/11/02 03:29:56;;;;;;;41.85;19.87;;;;;;;3.55;88.88;100084.58;1709504;82;21178;-66
2022/11/02 03:32:31;;;;;;;47.75;20.55;;;;;;;3.52;88.36;100078.52;1690537;83;22193;-66
2022/11/02 03:34:58;;;;;;;45.15;20.57;;;;;;;3.51;88.19;100077.67;1706234;82;21099;-66
2022/11/02 03:37:39;;;;;;;41.08;20.80;;;;;;;3.39;88.96;100072.58;1666157;83;21084;-67
2022/11/02 03:40:16;;;;;;;42.70;21.73;;;;;;;3.35;89.62;100072.17;1705735;82;21091;-65
2022/11/02 03:42:43;;;;;;;40.75;19.77;;;;;;;3.34;89.69;100069.16;1700950;83;21091;-66
2022/11/02 03:45:24;;;;;;;41.10;19.75;;;;;;;3.19;90.60;100071.43;1707392;82;21055;-65
2022/11/02 03:47:58;;;;;;;34.55;17.45;;;;;;;3.22;90.71;100066.64;1708197;82;21127;-66
2022/11/02 03:50:26;;;;;;;34.95;16.80;;;;;;;3.09;91.60;100058.94;1705612;82;21052;-66
2022/11/02 06:21:59;;;;;;;57.60;21.55;;;;;;;7.73;100.00;100019.61;1843110;76;28624;-88
2022/11/02 06:24:30;;;;;;;61.18;21.65;;;;;;;8.42;100.00;100015.52;1820472;78;21033;-90
2022/11/02 06:26:57;;;;;;;53.15;20.88;;;;;;;9.11;97.86;100019.03;1820645;78;21075;-89
2022/11/02 06:29:24;;;;;;;53.70;22.27;;;;;;;9.75;93.72;100018.14;1820373;78;21001;-91
2022/11/02 06:31:50;;;;;;;60.75;25.85;;;;;;;10.29;90.49;100013.14;1820727;78;21625;-91
2022/11/02 06:34:17;;;;;;;64.58;28.30;;;;;;;10.90;87.50;100015.62;1804584;78;20988;-91
2022/11/02 06:36:44;;;;;;;63.20;26.62;;;;;;;11.40;83.96;100021.06;1788520;78;21443;-91
2022/11/02 06:39:12;;;;;;;44.20;22.67;;;;;;;11.84;79.79;100025.73;1788631;78;21168;-92
2022/11/02 06:41:41;;;;;;;52.60;24.18;;;;;;;12.21;75.82;100025.44;1790420;80;21016;-92
2022/11/02 06:44:10;;;;;;;48.40;24.25;;;;;;;12.60;68.99;100020.09;1798098;78;20951;-92
2022/11/02 06:46:37;;;;;;;51.77;24.30;;;;;;;13.02;66.87;100020.75;1823712;78;21100;-93
2022/11/02 06:49:05;;;;;;;44.80;23.27;;;;;;;13.47;64.69;100024.73;1824008;78;21038;-92
2022/11/02 06:51:32;;;;;;;46.08;23.52;;;;;;;13.91;62.69;100019.41;1825606;77;21066;-92
2022/11/02 06:53:59;;;;;;;56.30;23.18;;;;;;;14.35;61.07;100012.19;1824420;78;21058;-94
2022/11/02 06:56:28;;;;;;;47.05;22.30;;;;;;;14.84;59.01;100018.80;1825352;78;21054;-92
2022/11/02 06:58:56;;;;;;;49.53;21.10;;;;;;;15.20;49.78;100019.79;1807198;78;20970;-92
2022/11/02 07:01:23;;;;;;;41.70;19.98;;;;;;;15.43;47.59;100021.10;1757706;80;21095;-91
2022/11/02 07:03:51;;;;;;;44.15;23.00;;;;;;;15.62;46.96;100022.22;1758887;80;21105;-91
2022/11/02 07:06:21;;;;;;;36.60;18.32;;;;;;;15.89;46.04;100013.55;1757204;81;21032;-91
2022/11/02 07:08:47;;;;;;;36.05;20.17;;;;;;;16.28;45.19;100013.37;1757471;80;21127;-91
2022/11/02 07:11:17;;;;;;;38.88;19.55;;;;;;;16.63;44.05;100002.30;1758410;80;21064;-88
2022/11/02 07:13:45;;;;;;;41.37;19.52;;;;;;;16.67;42.14;99997.17;1757617;81;21334;-92
2022/11/02 07:16:11;;;;;;;38.33;19.48;;;;;;;16.80;42.84;100004.77;1757119;80;21186;-94
2022/11/02 07:18:40;;;;;;;42.23;18.82;;;;;;;17.17;42.35;100000.54;1757369;81;21111;-94
2022/11/02 07:21:09;;;;;;;34.23;17.07;;;;;;;17.60;41.46;100000.31;1760743;80;21016;-91
2022/11/02 07:23:36;;;;;;;66.50;20.57;;;;;;;17.90;40.13;100002.31;1763153;80;21071;-92
2022/11/02 07:26:04;;;;;;;52.50;24.20;;;;;;;18.39;39.64;100002.87;1763408;81;21656;-93
2022/11/02 07:28:30;;;;;;;50.73;24.67;;;;;;;18.81;38.71;99998.92;1711185;81;21114;-93
2022/11/02 07:30:58;;;;;;;37.55;17.50;;;;;;;19.13;36.54;99992.18;1763609;80;21064;-92
2022/11/02 07:33:26;;;;;;;37.08;16.75;;;;;;;19.20;36.78;99993.42;1763139;80;21076;-91
2022/11/02 07:35:57;;;;;;;32.75;15.60;;;;;;;19.42;36.40;99992.17;1763620;80;20996;-94
2022/11/02 07:38:23;;;;;;;34.23;16.40;;;;;;;19.63;35.55;99993.67;1791768;78;21063;-92
2022/11/02 07:40:55;;;;;;;27.27;15.55;;;;;;;19.89;35.19;99985.00;1795623;80;21249;-92
2022/11/02 07:43:22;;;;;;;26.52;15.63;;;;;;;20.11;33.67;99988.67;1796011;80;21000;-91
2022/11/02 07:45:55;;;;;;;42.55;15.80;;;;;;;20.11;33.67;99985.51;1793670;80;21149;-92
2022/11/02 07:48:21;;;;;;;25.35;15.13;;;;;;;20.12;33.91;99981.00;1794460;80;21061;-90
2022/11/02 07:50:58;;;;;;;29.23;15.58;;;;;;;20.35;33.42;99975.66;1793903;78;20981;-92
2022/11/02 07:53:28;;;;;;;25.57;15.48;;;;;;;20.40;33.75;99973.45;1793383;80;21273;-92
2022/11/02 07:55:55;;;;;;;28.50;15.53;;;;;;;20.67;33.46;99976.59;1793562;79;21047;-92
2022/11/02 07:58:31;;;;;;;28.90;15.45;;;;;;;20.70;33.01;99977.67;1795185;80;21451;-90
2022/11/02 08:01:00;;;;;;;30.35;15.65;;;;;;;20.80;32.59;99976.91;1794637;80;21080;-92
2022/11/02 08:03:28;;;;;;;27.48;14.45;;;;;;;20.81;32.37;99970.61;1795123;80;21099;-92
2022/11/02 08:05:57;;;;;;;36.73;19.23;;;;;;;20.84;32.58;99967.17;1795124;80;21121;-92
2022/11/02 08:08:24;;;;;;;39.27;22.00;;;;;;;21.07;32.78;99964.42;1765284;80;21060;-92
2022/11/02 08:10:53;;;;;;;33.25;19.00;;;;;;;21.33;31.89;99963.59;1794299;80;21056;-92
2022/11/02 08:13:25;;;;;;;30.72;16.50;;;;;;;21.72;31.20;99969.23;1793916;80;21088;-93
2022/11/02 08:15:52;;;;;;;28.57;16.70;;;;;;;22.02;30.76;99965.72;1795121;80;21064;-94
2022/11/02 08:18:22;;;;;;;29.10;16.05;;;;;;;22.33;30.11;99961.19;1794022;78;21682;-93
2022/11/02 08:20:48;;;;;;;30.92;17.57;;;;;;;22.53;29.63;99963.94;1793400;80;21080;-91
2022/11/02 08:23:19;;;;;;;29.98;16.65;;;;;;;22.66;28.75;99968.56;1791689;80;21067;-92
2022/11/02 08:25:49;;;;;;;30.92;17.73;;;;;;;22.63;28.39;99966.14;1791981;80;21189;-93
2022/11/02 08:28:29;;;;;;;36.17;17.37;;;;;;;22.74;28.45;99960.66;1791974;80;21068;-92
2022/11/02 08:30:57;;;;;;;30.23;17.13;;;;;;;22.61;28.28;99962.73;1792785;80;21173;-92
2022/11/02 08:35:52;;;;;;;32.30;17.20;;;;;;;22.32;28.88;99960.01;1888581;76;21870;-68
2022/11/02 08:38:22;;;;;;;33.58;16.57;;;;;;;22.80;28.84;99964.13;1859318;77;20985;-69
2022/11/02 08:40:50;;;;;;;;;;;;;;;23.37;28.47;99962.94;1862187;77;20910;-70
2022/11/02 08:43:16;;;;;;;32.40;17.32;;;;;;;23.82;27.98;99958.80;1859365;77;20182;-68
2022/11/02 08:45:44;;;;;;;29.67;17.52;;;;;;;23.98;27.72;99963.56;1841818;77;21310;-69
2022/11/02 08:48:11;;;;;;;30.02;17.27;;;;;;;24.11;26.92;99954.66;1839840;78;21031;-69
2022/11/02 08:50:38;;;;;;;29.72;16.87;;;;;;;24.22;26.81;99959.83;1840083;78;21027;-69
2022/11/02 08:53:05;;;;;;;27.42;16.70;;;;;;;24.54;26.97;99955.03;1839816;78;21888;-68
2022/11/02 08:55:33;;;;;;;29.35;16.52;;;;;;;24.76;26.17;99961.33;1840003;78;21006;-69
2022/11/02 08:58:00;;;;;;;30.92;15.72;;;;;;;24.97;26.14;99954.80;1839837;78;21000;-68
2022/11/02 09:00:29;;;;;;;36.13;17.95;;;;;;;25.06;26.01;99956.58;1839964;78;21051;-69
2022/11/02 09:03:13;;;;;;;31.48;17.30;;;;;;;25.19;25.03;99950.80;1840086;78;21086;-69
2022/11/02 09:05:43;;;;;;;31.17;18.05;;;;;;;24.80;25.50;99951.95;1839868;78;21170;-69
2022/11/02 09:08:16;;;;;;;29.70;16.70;;;;;;;24.54;26.00;99950.98;1839538;78;21019;-68
2022/11/02 09:10:43;;;;;;;24.72;15.70;;;;;;;24.51;26.48;99942.72;1840007;78;21003;-68
2022/11/02 09:13:14;;;;;;;31.15;16.07;;;;;;;24.98;25.85;99945.71;1839734;78;21050;-71
2022/11/02 09:15:40;;;;;;;28.40;17.87;;;;;;;25.32;25.31;99939.97;1840255;78;21750;-70
2022/11/02 09:18:07;;;;;;;28.38;16.37;;;;;;;25.47;25.27;99943.47;1839787;78;21828;-69
2022/11/02 09:20:35;;;;;;;29.23;17.75;;;;;;;25.38;25.07;99937.67;1839865;78;21021;-70
2022/11/02 09:23:01;;;;;;;32.48;16.65;;;;;;;25.46;24.65;99943.11;1820102;78;20995;-68
2022/11/02 09:25:28;;;;;;;30.80;17.30;;;;;;;25.12;25.29;99931.69;1807244;79;21043;-69
2022/11/02 09:27:56;;;;;;;27.17;16.00;;;;;;;25.29;25.59;99932.72;1807077;79;21506;-69
2022/11/02 09:30:24;;;;;;;26.62;16.30;;;;;;;25.67;25.31;99924.70;1806844;79;21119;-69
2022/11/02 09:33:05;;;;;;;25.57;16.32;;;;;;;26.16;24.92;99929.05;1806963;79;21006;-68
2022/11/02 09:35:36;;;;;;;;;;;;;;;26.51;24.64;99924.95;1815818;79;21003;-70
2022/11/02 09:38:03;;;;;;;28.92;16.27;;;;;;;26.77;24.12;99924.34;1815307;79;20165;-68
2022/11/02 09:40:44;;;;;;;29.48;16.70;;;;;;;26.90;24.35;99922.52;1815481;79;21046;-69
2022/11/02 09:43:42;;;;;;;27.58;15.10;;;;;;;27.06;23.89;99922.20;1815606;79;21133;-69
2022/11/02 09:46:14;;;;;;;26.90;15.48;;;;;;;27.11;23.42;99921.17;1814619;79;21534;-70
2022/11/02 09:48:52;;;;;;;30.15;16.10;;;;;;;27.12;23.68;99922.34;1823896;78;21494;-70
2022/11/02 09:51:24;;;;;;;29.63;15.40;;;;;;;27.30;23.62;99924.91;1833910;78;21041;-70
2022/11/02 09:54:05;;;;;;;27.95;15.83;;;;;;;27.37;23.35;99924.55;1834124;78;21042;-69
2022/11/02 09:56:33;;;;;;;23.62;14.35;;;;;;;27.46;23.18;99921.86;1831609;78;21783;-70
2022/11/02 14:29:46;;;;;;;38.55;18.07;;;;;;;10.23;63.08;99990.11;1768226;76;88584;-67
2022/11/02 14:32:30;;;;;;;41.23;19.10;;;;;;;10.28;63.33;99994.34;1638508;85;21079;-67
2022/11/02 14:35:22;;;;;;;40.45;18.17;;;;;;;10.32;63.86;99995.52;1701308;83;21150;-67
2022/11/02 14:38:09;;;;;;;41.55;18.60;;;;;;;10.36;63.69;99995.81;1711286;82;21006;-68
2022/11/02 14:41:11;;;;;;;39.33;17.40;;;;;;;10.38;63.82;99998.78;1702788;83;21107;-67
2022/11/02 14:43:46;;;;;;;41.88;18.50;;;;;;;10.43;63.96;99994.66;1699796;83;21030;-68
2022/11/02 14:46:25;;;;;;;35.85;17.45;;;;;;;10.41;64.98;100005.70;1679152;83;21073;-67
2022/11/02 14:48:55;;;;;;;63.83;30.15;;;;;;;10.43;65.11;100003.88;1684086;84;21845;-68
2022/11/02 14:51:36;;;;;;;65.60;31.15;;;;;;;10.40;65.49;100007.92;1675509;84;20985;-67
2022/11/02 14:54:07;;;;;;;52.53;22.37;;;;;;;10.41;65.79;100005.70;1695127;84;21112;-67
2022/11/02 14:57:05;;;;;;;60.90;21.02;;;;;;;10.40;65.58;100002.66;1663005;84;21092;-67
2022/11/02 14:59:38;;;;;;;47.53;21.20;;;;;;;10.32;65.95;100004.27;1677315;84;21019;-68
2022/11/02 15:02:31;;;;;;;46.95;20.37;;;;;;;10.27;66.42;100007.05;1681544;84;21140;-68
2022/11/02 15:05:00;;;;;;;45.03;20.43;;;;;;;10.26;66.77;100013.23;1660135;84;21101;-68
2022/11/02 15:07:48;;;;;;;44.40;20.00;;;;;;;10.27;67.00;100009.67;1661854;84;21619;-66
2022/11/02 15:10:20;;;;;;;46.73;19.60;;;;;;;10.25;67.17;100010.66;1660414;85;21121;-67
2022/11/02 15:12:47;;;;;;;37.65;18.37;;;;;;;10.23;67.48;100014.64;1648712;86;21084;-67
2022/11/02 15:15:35;;;;;;;40.03;18.92;;;;;;;10.18;67.78;100015.28;1645803;86;21966;-67
2022/11/02 15:18:34;;;;;;;36.93;17.82;;;;;;;10.16;67.76;100023.69;1652078;85;21073;-66
2022/11/02 15:21:19;;;;;;;38.80;17.52;;;;;;;10.14;67.78;100021.56;1648447;86;21088;-67
2022/11/02 15:24:04;;;;;;;46.20;19.52;;;;;;;10.15;67.70;100026.40;1659242;86;21069;-67
2022/11/02 15:26:57;;;;;;;40.75;16.95;;;;;;;10.15;67.95;100039.09;1650645;86;21077;-67
2022/11/02 15:29:37;;;;;;;40.25;21.35;;;;;;;10.19;67.97;100042.02;1626935;86;21318;-67
2022/11/02 15:32:08;;;;;;;39.50;19.37;;;;;;;10.26;67.64;100032.98;1607348;88;21080;-67
2022/11/02 15:34:41;;;;;;;33.92;15.78;;;;;;;10.18;67.84;100038.12;1610276;88;21122;-67
2022/11/02 15:37:09;;;;;;;48.58;17.75;;;;;;;10.17;68.08;100038.58;1625932;88;21088;-67
2022/11/02 15:39:36;;;;;;;48.70;18.35;;;;;;;10.14;68.85;100038.67;1600263;87;21557;-68
2022/11/02 15:42:20;;;;;;;44.63;17.27;;;;;;;10.13;68.94;100040.92;1618687;88;21238;-67
2022/11/02 15:45:22;;;;;;;36.77;15.68;;;;;;;10.20;69.01;100045.03;1620444;88;21141;-68
2022/11/02 15:48:16;;;;;;;36.63;16.23;;;;;;;10.18;69.08;100041.60;1639918;86;21063;-67
2022/11/02 15:51:06;;;;;;;37.05;15.43;;;;;;;10.14;69.47;100049.66;1658616;86;21541;-67
2022/11/02 15:53:48;;;;;;;33.02;15.32;;;;;;;10.12;69.68;100048.39;1648318;86;27256;-67
2022/11/02 15:56:33;;;;;;;38.00;16.42;;;;;;;10.11;69.90;100053.27;1650620;86;21210;-67
2022/11/02 15:59:42;;;;;;;41.23;16.02;;;;;;;10.12;70.07;100056.29;1596831;88;21621;-67
2022/11/02 16:02:25;;;;;;;29.45;14.53;;;;;;;10.14;70.23;100061.50;1596910;89;21184;-67
2022/11/02 16:04:56;;;;;;;36.80;16.30;;;;;;;10.15;70.56;100056.66;1590652;89;21048;-68
2022/11/02 16:07:22;;;;;;;36.75;17.10;;;;;;;10.08;70.70;100067.40;1637267;86;21064;-68
2022/11/02 16:09:51;;;;;;;42.70;19.25;;;;;;;10.04;71.08;100064.93;1662420;86;21520;-68
2022/11/02 16:12:24;;;;;;;59.58;20.68;;;;;;;10.07;71.02;100067.44;1662127;86;21068;-68
2022/11/02 16:15:10;;;;;;;58.78;25.00;;;;;;;10.02;71.34;100070.70;1645479;86;21589;-68
2022/11/02 16:17:37;;;;;;;67.03;27.90;;;;;;;9.99;71.81;100070.36;1648249;86;21117;-68
2022/11/02 16:20:24;;;;;;;70.60;29.90;;;;;;;9.96;72.02;100073.54;1656832;86;21044;-68
2022/11/02 16:23:00;;;;;;;57.15;25.30;;;;;;;9.95;72.10;100074.00;1652491;86;21077;-68
2022/11/02 16:25:45;;;;;;;46.92;19.95;;;;;;;9.87;72.12;100087.44;1653840;86;21560;-69
2022/11/02 16:28:27;;;;;;;47.33;22.42;;;;;;;9.84;72.03;100086.20;1645761;86;21148;-68
2022/11/02 16:31:22;;;;;;;46.08;20.65;;;;;;;9.85;71.82;100089.72;1660722;85;21021;-68
2022/11/02 16:33:52;;;;;;;41.77;19.23;;;;;;;9.90;71.46;100094.36;1650275;86;21011;-67
2022/11/02 16:36:23;;;;;;;46.55;21.68;;;;;;;9.86;71.67;100096.22;1651012;86;21896;-67
2022/11/02 16:39:16;;;;;;;60.63;21.23;;;;;;;9.87;71.73;100099.27;1648307;86;21078;-67
2022/11/02 16:41:56;;;;;;;50.17;21.95;;;;;;;9.86;71.89;100100.17;1667258;86;21139;-67
2022/11/02 16:44:31;;;;;;;45.48;20.82;;;;;;;9.86;71.92;100102.80;1653789;86;21045;-68
2022/11/02 16:47:10;;;;;;;46.85;20.10;;;;;;;9.80;71.74;100106.09;1610887;87;21113;-68
2022/11/02 16:49:56;;;;;;;46.35;20.75;;;;;;;9.69;71.86;100094.64;1607906;89;21345;-68
2022/11/02 16:52:33;;;;;;;46.00;21.30;;;;;;;9.70;71.90;100102.92;1615233;88;21083;-68
2022/11/02 16:55:00;;;;;;;41.55;20.52;;;;;;;9.69;72.07;100110.88;1618147;88;21568;-67
2022/11/02 16:57:31;;;;;;;40.38;19.45;;;;;;;9.69;71.84;100106.48;1625479;87;21599;-67
2022/11/02 17:00:08;;;;;;;47.75;22.60;;;;;;;9.71;71.88;100109.92;1620961;88;21942;-68
2022/11/02 17:02:53;;;;;;;40.50;20.43;;;;;;;9.78;71.37;100110.11;1671634;85;21598;-67
2022/11/02 17:05:24;;;;;;;42.55;19.17;;;;;;;9.75;70.98;100111.51;1672394;85;21540;-67
2022/11/02 17:08:06;;;;;;;43.50;20.95;;;;;;;9.77;71.01;100112.31;1672134;85;21036;-68
2022/11/02 17:10:35;;;;;;;37.00;19.20;;;;;;;9.75;71.24;100114.14;1672465;85;21567;-68
2022/11/02 17:13:05;;;;;;;47.60;21.62;;;;;;;9.69;71.47;100117.00;1672264;85;20993;-67
2022/11/02 17:15:36;;;;;;;48.23;22.85;;;;;;;9.56;71.97;100117.84;1672378;85;21041;-67
2022/11/02 17:18:17;;;;;;;59.85;30.35;;;;;;;9.68;72.10;100121.83;1672393;85;21052;-67
2022/11/02 17:20:43;;;;;;;51.53;26.17;;;;;;;9.68;72.10;100118.34;1671727;85;21115;-67
2022/11/02 17:23:32;;;;;;;50.55;24.70;;;;;;;9.68;72.07;100119.66;1672357;85;21048;-67
2022/11/02 17:26:28;;;;;;;56.63;26.60;;;;;;;9.72;72.08;100127.40;1672483;85;21047;-67
2022/11/02 17:29:04;;;;;;;54.50;25.10;;;;;;;9.74;72.17;100125.58;1673199;84;21245;-68
2022/11/02 17:31:39;;;;;;;61.75;25.72;;;;;;;9.72;72.29;100126.09;1668326;85;21071;-68
2022/11/02 17:34:14;;;;;;;47.43;24.85;;;;;;;9.68;72.50;100128.41;1672382;85;22205;-67
2022/11/02 17:36:46;;;;;;;55.08;25.57;;;;;;;9.68;72.78;100123.15;1645003;85;21165;-67
2022/11/02 17:39:14;;;;;;;50.55;24.70;;;;;;;9.59;73.50;100128.71;1672416;85;21125;-68
2022/11/02 17:44:29;;;;;;;58.60;25.82;;;;;;;9.50;74.24;100131.64;1672199;85;21554;-68
2022/11/02 17:46:55;;;;;;;53.08;25.48;;;;;;;9.58;74.41;100133.58;1672715;85;21606;-67
2022/11/02 17:49:22;;;;;;;55.85;25.08;;;;;;;9.59;74.74;100128.71;1672427;85;21161;-67
2022/11/02 17:51:49;;;;;;;54.80;25.00;;;;;;;9.56;75.24;100130.14;1672377;85;21096;-67
2022/11/02 17:54:15;;;;;;;68.80;35.55;;;;;;;9.53;75.54;100130.25;1672227;85;21156;-67
2022/11/02 17:56:44;;;;;;;48.00;25.62;;;;;;;9.52;76.04;100126.73;1672479;85;21086;-67
2022/11/02 17:59:11;;;;;;;52.53;27.55;;;;;;;9.55;76.20;100127.12;1672144;85;21616;-67
2022/11/02 18:01:39;;;;;;;57.08;26.07;;;;;;;9.63;76.11;100123.30;1672178;85;21141;-67
2022/11/02 22:33:21;;;;;;;31.52;16.77;;;;;;;7.09;100.00;100191.48;1832772;77;28083;-90
2022/11/02 22:35:49;;;;;;;24.40;13.45;;;;;;;7.23;100.00;100193.35;1771702;80;20954;-91
2022/11/02 22:41:01;;;;;;;32.90;15.72;;;;;;;7.50;100.00;100194.91;1736999;81;20973;-92
2022/11/02 22:43:28;;;;;;;28.00;14.98;;;;;;;7.60;100.00;100199.05;1712850;83;20978;-92
2022/11/02 22:46:19;;;;;;;30.92;15.32;;;;;;;7.69;100.00;100198.84;1737897;81;20990;-92
2022/11/02 22:48:51;;;;;;;24.87;13.65;;;;;;;7.78;100.00;100200.38;1775857;79;21411;-91
2022/11/02 22:51:22;;;;;;;;;;;;;;;7.82;100.00;100207.70;1782640;80;21159;-91
2022/11/02 22:53:51;;;;;;;24.60;13.98;;;;;;;7.85;100.00;100203.72;1778910;78;20161;-89
2022/11/02 22:56:19;;;;;;;25.10;13.83;;;;;;;7.86;100.00;100206.73;1774215;79;21010;-90
2022/11/02 22:58:47;;;;;;;24.87;12.68;;;;;;;7.89;100.00;100210.58;1777582;79;21073;-91
2022/11/02 23:01:20;;;;;;;21.57;12.95;;;;;;;7.96;100.00;100210.88;1773799;79;21116;-90
2022/11/02 23:03:47;;;;;;;29.60;14.60;;;;;;;8.01;100.00;100207.67;1757691;78;21242;-90
2022/11/02 23:06:20;;;;;;;29.30;14.73;;;;;;;8.02;100.00;100212.01;1789840;79;21024;-91
2022/11/02 23:08:47;;;;;;;27.37;14.87;;;;;;;8.10;100.00;100214.00;1775331;79;21026;-90
2022/11/02 23:11:20;;;;;;;27.15;14.05;;;;;;;8.08;100.00;100212.31;1746727;79;21124;-93
2022/11/02 23:14:11;;;;;;;34.18;15.50;;;;;;;8.11;100.00;100205.67;1749801;80;21068;-90
2022/11/02 23:16:45;;;;;;;30.10;14.98;;;;;;;8.08;100.00;100206.62;1777849;79;21637;-91
2022/11/02 23:33:24;;;;;;;24.07;13.03;;;;;;;8.13;100.00;100203.41;1780067;79;21053;-89
2022/11/02 23:41:24;;;;;;;31.23;13.88;;;;;;;8.13;100.00;100199.48;1771616;79;20978;-91